sensor_id;sensor_type;location;lat;lon;timestamp;temperature;humidity
33460;DHT22;19795;53.160;6.612;2022-08-20T05:56:28;17.00;99.90
33460;DHT22;19795;53.160;6.612;2022-08-20T05:58:55;17.40;99.90
33460;DHT22;19795;53.160;6.612;2022-08-20T06:01:21;17.50;99.90
33460;DHT22;19795;53.160;6.612;2022-08-20T06:03:49;18.00;99.90
33460;DHT22;19795;53.160;6.612;2022-08-20T06:06:41;18.40;99.90
33460;DHT22;19795;53.160;6.612;2022-08-20T06:09:07;19.00;99.90
33460;DHT22;19795;53.160;6.612;2022-08-20T06:11:36;19.60;99.90
33460;DHT22;19795;53.160;6.612;2022-08-20T06:14:01;19.80;99.90
33460;DHT22;19795;53.160;6.612;2022-08-20T06:16:29;20.10;99.90
33460;DHT22;19795;53.160;6.612;2022-08-20T06:18:55;20.60;99.90
33460;DHT22;19795;53.160;6.612;2022-08-20T06:21:20;20.80;99.90
33460;DHT22;19795;53.160;6.612;2022-08-20T06:23:46;20.70;99.90
33460;DHT22;19795;53.160;6.612;2022-08-20T06:26:12;20.80;99.90
33460;DHT22;19795;53.160;6.612;2022-08-20T06:28:37;21.00;99.90
33460;DHT22;19795;53.160;6.612;2022-08-20T06:31:03;21.40;99.90
33460;DHT22;19795;53.160;6.612;2022-08-20T06:33:29;22.00;99.90
33460;DHT22;19795;53.160;6.612;2022-08-20T06:35:54;22.20;99.90
33460;DHT22;19795;53.160;6.612;2022-08-20T06:38:20;22.60;99.90
33460;DHT22;19795;53.160;6.612;2022-08-20T06:40:47;22.70;99.90
33460;DHT22;19795;53.160;6.612;2022-08-20T06:43:13;22.80;99.90
33460;DHT22;19795;53.160;6.612;2022-08-20T06:45:39;23.00;99.90
33460;DHT22;19795;53.160;6.612;2022-08-20T06:48:10;23.20;99.90
33460;DHT22;19795;53.160;6.612;2022-08-20T06:50:40;23.40;99.90
33460;DHT22;19795;53.160;6.612;2022-08-20T06:53:08;23.40;99.90
33460;DHT22;19795;53.160;6.612;2022-08-20T06:55:36;23.70;99.90
33460;DHT22;19795;53.160;6.612;2022-08-20T06:58:06;23.60;99.90
33460;DHT22;19795;53.160;6.612;2022-08-20T07:00:34;23.70;99.90
33460;DHT22;19795;53.160;6.612;2022-08-20T07:03:01;23.10;99.90
33460;DHT22;19795;53.160;6.612;2022-08-20T07:05:30;23.70;99.90
33460;DHT22;19795;53.160;6.612;2022-08-20T07:07:56;23.80;99.90
33460;DHT22;19795;53.160;6.612;2022-08-20T07:10:23;24.00;99.90
33460;DHT22;19795;53.160;6.612;2022-08-20T07:12:50;24.50;99.90
33460;DHT22;19795;53.160;6.612;2022-08-20T07:15:18;24.70;99.90
33460;DHT22;19795;53.160;6.612;2022-08-20T07:18:11;24.30;99.90
33460;DHT22;19795;53.160;6.612;2022-08-20T07:20:37;24.90;99.90
33460;DHT22;19795;53.160;6.612;2022-08-20T07:23:05;24.30;99.90
33460;DHT22;19795;53.160;6.612;2022-08-20T07:25:33;24.10;99.90
33460;DHT22;19795;53.160;6.612;2022-08-20T07:28:13;24.60;99.90
33460;DHT22;19795;53.160;6.612;2022-08-20T07:30:41;24.90;99.90
33460;DHT22;19795;53.160;6.612;2022-08-20T07:33:27;24.90;99.90
33460;DHT22;19795;53.160;6.612;2022-08-20T07:35:54;24.90;99.90
33460;DHT22;19795;53.160;6.612;2022-08-20T07:38:22;24.80;99.90
33460;DHT22;19795;53.160;6.612;2022-08-20T07:40:54;24.50;99.90
33460;DHT22;19795;53.160;6.612;2022-08-20T07:43:20;24.20;99.90
33460;DHT22;19795;53.160;6.612;2022-08-20T07:45:49;23.60;99.90
33460;DHT22;19795;53.160;6.612;2022-08-20T07:48:15;22.10;99.90
33460;DHT22;19795;53.160;6.612;2022-08-20T07:50:41;21.20;99.90
33460;DHT22;19795;53.160;6.612;2022-08-20T07:53:08;20.90;99.90
33460;DHT22;19795;53.160;6.612;2022-08-20T07:55:33;21.50;99.90
33460;DHT22;19795;53.160;6.612;2022-08-20T07:58:10;22.50;99.90
33460;DHT22;19795;53.160;6.612;2022-08-20T08:00:37;22.80;99.90
33460;DHT22;19795;53.160;6.612;2022-08-20T08:03:03;22.80;99.90
33460;DHT22;19795;53.160;6.612;2022-08-20T08:05:30;23.80;99.90
33460;DHT22;19795;53.160;6.612;2022-08-20T08:07:56;24.10;99.90
33460;DHT22;19795;53.160;6.612;2022-08-20T08:10:24;24.70;99.90
33460;DHT22;19795;53.160;6.612;2022-08-20T08:12:53;24.80;99.90
33460;DHT22;19795;53.160;6.612;2022-08-20T08:15:26;24.30;99.90
33460;DHT22;19795;53.160;6.612;2022-08-20T08:17:58;24.90;99.90
33460;DHT22;19795;53.160;6.612;2022-08-20T08:20:24;25.30;99.90
33460;DHT22;19795;53.160;6.612;2022-08-20T08:22:51;24.60;99.90
33460;DHT22;19795;53.160;6.612;2022-08-20T08:25:16;24.20;99.90
33460;DHT22;19795;53.160;6.612;2022-08-20T08:27:43;24.40;99.90
33460;DHT22;19795;53.160;6.612;2022-08-20T08:30:11;24.00;99.90
33460;DHT22;19795;53.160;6.612;2022-08-20T08:32:38;24.10;99.90
33460;DHT22;19795;53.160;6.612;2022-08-20T08:35:26;24.50;99.90
33460;DHT22;19795;53.160;6.612;2022-08-20T08:37:52;24.60;99.90
33460;DHT22;19795;53.160;6.612;2022-08-20T08:40:20;24.40;99.90
33460;DHT22;19795;53.160;6.612;2022-08-20T08:42:50;24.20;99.90
33460;DHT22;19795;53.160;6.612;2022-08-20T08:45:20;24.10;99.90
33460;DHT22;19795;53.160;6.612;2022-08-20T08:47:46;24.30;99.90
33460;DHT22;19795;53.160;6.612;2022-08-20T08:50:24;24.40;99.90
33460;DHT22;19795;53.160;6.612;2022-08-20T08:52:53;24.40;99.90
33460;DHT22;19795;53.160;6.612;2022-08-20T08:55:22;24.40;99.90
33460;DHT22;19795;53.160;6.612;2022-08-20T08:57:48;24.40;99.90
33460;DHT22;19795;53.160;6.612;2022-08-20T09:00:18;24.40;99.90
33460;DHT22;19795;53.160;6.612;2022-08-20T09:05:39;23.80;99.90
33460;DHT22;19795;53.160;6.612;2022-08-20T09:08:09;24.20;99.90
33460;DHT22;19795;53.160;6.612;2022-08-20T09:10:37;24.50;99.90
33460;DHT22;19795;53.160;6.612;2022-08-20T09:13:07;24.70;99.90
33460;DHT22;19795;53.160;6.612;2022-08-20T09:15:33;25.50;99.90
33460;DHT22;19795;53.160;6.612;2022-08-20T09:17:58;25.10;99.60
33460;DHT22;19795;53.160;6.612;2022-08-20T09:20:24;24.90;99.90
33460;DHT22;19795;53.160;6.612;2022-08-20T09:22:50;25.10;98.80
33460;DHT22;19795;53.160;6.612;2022-08-20T09:25:16;24.70;99.90
33460;DHT22;19795;53.160;6.612;2022-08-20T09:27:42;24.60;99.90
33460;DHT22;19795;53.160;6.612;2022-08-20T09:30:08;25.20;99.90
33460;DHT22;19795;53.160;6.612;2022-08-20T09:32:34;24.90;99.40
33460;DHT22;19795;53.160;6.612;2022-08-20T09:35:00;24.80;99.90
33460;DHT22;19795;53.160;6.612;2022-08-20T09:37:29;25.00;99.90
33460;DHT22;19795;53.160;6.612;2022-08-20T09:39:55;25.00;99.60
33460;DHT22;19795;53.160;6.612;2022-08-20T09:42:29;25.40;99.90
33460;DHT22;19795;53.160;6.612;2022-08-20T09:44:56;25.60;99.90
33460;DHT22;19795;53.160;6.612;2022-08-20T09:47:22;26.00;99.90
33460;DHT22;19795;53.160;6.612;2022-08-20T09:49:48;26.40;98.80
33460;DHT22;19795;53.160;6.612;2022-08-20T09:52:26;26.40;97.40
33460;DHT22;19795;53.160;6.612;2022-08-20T09:54:56;26.40;98.60
33460;DHT22;19795;53.160;6.612;2022-08-20T09:57:22;26.70;98.30
33460;DHT22;19795;53.160;6.612;2022-08-20T09:59:52;26.00;99.50
33460;DHT22;19795;53.160;6.612;2022-08-20T10:02:19;25.60;96.70
33460;DHT22;19795;53.160;6.612;2022-08-20T10:04:44;25.30;98.10
33460;DHT22;19795;53.160;6.612;2022-08-20T10:07:10;25.40;99.50
33460;DHT22;19795;53.160;6.612;2022-08-20T10:09:36;25.70;98.90
33460;DHT22;19795;53.160;6.612;2022-08-20T10:12:03;26.20;99.90
33460;DHT22;19795;53.160;6.612;2022-08-20T10:14:29;25.40;98.30
33460;DHT22;19795;53.160;6.612;2022-08-20T10:16:56;25.60;98.90
33460;DHT22;19795;53.160;6.612;2022-08-20T10:19:23;26.20;99.90
33460;DHT22;19795;53.160;6.612;2022-08-20T10:21:52;26.30;97.40
33460;DHT22;19795;53.160;6.612;2022-08-20T10:24:19;26.70;97.00
33460;DHT22;19795;53.160;6.612;2022-08-20T10:26:46;26.80;95.70
33460;DHT22;19795;53.160;6.612;2022-08-20T10:29:12;26.90;95.30
33460;DHT22;19795;53.160;6.612;2022-08-20T10:31:38;26.70;96.10
33460;DHT22;19795;53.160;6.612;2022-08-20T10:34:03;26.20;96.90
33460;DHT22;19795;53.160;6.612;2022-08-20T10:36:29;25.20;99.90
33460;DHT22;19795;53.160;6.612;2022-08-20T10:38:55;24.50;99.80
33460;DHT22;19795;53.160;6.612;2022-08-20T10:41:20;24.40;99.80
33460;DHT22;19795;53.160;6.612;2022-08-20T10:43:46;24.60;99.90
33460;DHT22;19795;53.160;6.612;2022-08-20T10:46:15;24.00;99.90
33460;DHT22;19795;53.160;6.612;2022-08-20T10:48:40;24.20;99.00
33460;DHT22;19795;53.160;6.612;2022-08-20T10:51:06;24.90;98.40
33460;DHT22;19795;53.160;6.612;2022-08-20T10:53:32;25.00;97.20
33460;DHT22;19795;53.160;6.612;2022-08-20T10:55:58;25.60;96.00
33460;DHT22;19795;53.160;6.612;2022-08-20T10:58:24;25.90;96.90
33460;DHT22;19795;53.160;6.612;2022-08-20T11:00:51;26.70;97.50
33460;DHT22;19795;53.160;6.612;2022-08-20T11:03:17;26.10;96.10
33460;DHT22;19795;53.160;6.612;2022-08-20T11:05:42;25.90;99.90
33460;DHT22;19795;53.160;6.612;2022-08-20T11:08:08;25.00;96.10
33460;DHT22;19795;53.160;6.612;2022-08-20T11:10:34;24.60;99.10
33460;DHT22;19795;53.160;6.612;2022-08-20T11:13:02;24.90;97.70
33460;DHT22;19795;53.160;6.612;2022-08-20T11:15:28;24.30;99.60
33460;DHT22;19795;53.160;6.612;2022-08-20T11:17:54;24.40;99.10
33460;DHT22;19795;53.160;6.612;2022-08-20T11:20:22;24.40;99.90
33460;DHT22;19795;53.160;6.612;2022-08-20T11:22:51;24.90;97.70
33460;DHT22;19795;53.160;6.612;2022-08-20T11:25:17;25.00;97.30
33460;DHT22;19795;53.160;6.612;2022-08-20T11:27:46;24.80;96.50
33460;DHT22;19795;53.160;6.612;2022-08-20T11:30:17;25.20;99.00
33460;DHT22;19795;53.160;6.612;2022-08-20T11:32:44;26.40;97.10
33460;DHT22;19795;53.160;6.612;2022-08-20T11:35:10;26.30;96.00
33460;DHT22;19795;53.160;6.612;2022-08-20T11:37:35;25.40;97.00
33460;DHT22;19795;53.160;6.612;2022-08-20T11:40:02;24.80;97.70
33460;DHT22;19795;53.160;6.612;2022-08-20T11:42:28;24.50;98.00
33460;DHT22;19795;53.160;6.612;2022-08-20T11:44:53;24.40;98.00
33460;DHT22;19795;53.160;6.612;2022-08-20T11:47:22;24.40;98.70
33460;DHT22;19795;53.160;6.612;2022-08-20T11:50:05;24.70;99.20
33460;DHT22;19795;53.160;6.612;2022-08-20T11:52:31;25.40;96.50
33460;DHT22;19795;53.160;6.612;2022-08-20T11:54:57;25.20;98.40
33460;DHT22;19795;53.160;6.612;2022-08-20T11:57:28;25.10;96.20
33460;DHT22;19795;53.160;6.612;2022-08-20T11:59:55;25.30;98.10
33460;DHT22;19795;53.160;6.612;2022-08-20T12:02:22;25.50;98.80
33460;DHT22;19795;53.160;6.612;2022-08-20T12:04:48;25.60;96.90
33460;DHT22;19795;53.160;6.612;2022-08-20T12:07:16;24.70;97.20
33460;DHT22;19795;53.160;6.612;2022-08-20T12:09:42;24.20;99.00
33460;DHT22;19795;53.160;6.612;2022-08-20T12:12:08;24.30;98.70
33460;DHT22;19795;53.160;6.612;2022-08-20T12:14:34;24.10;98.10
33460;DHT22;19795;53.160;6.612;2022-08-20T12:17:11;23.70;96.90
33460;DHT22;19795;53.160;6.612;2022-08-20T12:19:41;23.30;97.90
33460;DHT22;19795;53.160;6.612;2022-08-20T12:22:07;23.30;97.90
33460;DHT22;19795;53.160;6.612;2022-08-20T12:24:34;23.30;98.40
33460;DHT22;19795;53.160;6.612;2022-08-20T12:27:21;23.40;99.50
33460;DHT22;19795;53.160;6.612;2022-08-20T12:29:48;23.20;99.90
33460;DHT22;19795;53.160;6.612;2022-08-20T12:32:16;23.60;99.30
33460;DHT22;19795;53.160;6.612;2022-08-20T12:34:42;23.70;99.90
33460;DHT22;19795;53.160;6.612;2022-08-20T12:37:17;24.10;99.90
33460;DHT22;19795;53.160;6.612;2022-08-20T12:39:49;24.50;99.60
33460;DHT22;19795;53.160;6.612;2022-08-20T12:42:15;25.60;99.90
33460;DHT22;19795;53.160;6.612;2022-08-20T12:44:41;26.20;97.70
33460;DHT22;19795;53.160;6.612;2022-08-20T12:47:14;26.40;98.50
33460;DHT22;19795;53.160;6.612;2022-08-20T12:50:01;26.80;97.70
33460;DHT22;19795;53.160;6.612;2022-08-20T12:52:28;26.50;96.90
33460;DHT22;19795;53.160;6.612;2022-08-20T12:54:54;26.20;96.50
33460;DHT22;19795;53.160;6.612;2022-08-20T12:57:33;25.80;97.20
33460;DHT22;19795;53.160;6.612;2022-08-20T13:00:05;25.90;96.30
33460;DHT22;19795;53.160;6.612;2022-08-20T13:02:32;26.50;94.50
33460;DHT22;19795;53.160;6.612;2022-08-20T13:04:58;26.40;96.60
33460;DHT22;19795;53.160;6.612;2022-08-20T13:07:24;26.20;95.40
33460;DHT22;19795;53.160;6.612;2022-08-20T13:09:49;25.30;95.10
33460;DHT22;19795;53.160;6.612;2022-08-20T13:12:15;24.80;97.80
33460;DHT22;19795;53.160;6.612;2022-08-20T13:14:41;25.40;96.80
33460;DHT22;19795;53.160;6.612;2022-08-20T13:17:07;26.00;94.60
33460;DHT22;19795;53.160;6.612;2022-08-20T13:19:35;26.10;94.70
33460;DHT22;19795;53.160;6.612;2022-08-20T13:22:01;25.70;96.10
33460;DHT22;19795;53.160;6.612;2022-08-20T13:24:27;25.10;96.60
33460;DHT22;19795;53.160;6.612;2022-08-20T13:26:52;24.70;95.60
33460;DHT22;19795;53.160;6.612;2022-08-20T13:29:18;25.90;94.40
33460;DHT22;19795;53.160;6.612;2022-08-20T13:31:44;26.10;94.40
33460;DHT22;19795;53.160;6.612;2022-08-20T13:34:10;26.40;93.80
33460;DHT22;19795;53.160;6.612;2022-08-20T13:36:36;25.40;95.50
33460;DHT22;19795;53.160;6.612;2022-08-20T13:39:04;24.60;96.50
33460;DHT22;19795;53.160;6.612;2022-08-20T13:41:31;24.80;98.50
33460;DHT22;19795;53.160;6.612;2022-08-20T13:43:56;24.80;98.70
33460;DHT22;19795;53.160;6.612;2022-08-20T13:46:22;25.00;97.70
33460;DHT22;19795;53.160;6.612;2022-08-20T13:48:48;25.00;97.70
33460;DHT22;19795;53.160;6.612;2022-08-20T13:51:17;25.40;97.10
33460;DHT22;19795;53.160;6.612;2022-08-20T13:53:42;25.30;97.40
33460;DHT22;19795;53.160;6.612;2022-08-20T13:56:08;25.20;96.90
33460;DHT22;19795;53.160;6.612;2022-08-20T13:58:33;25.60;97.80
33460;DHT22;19795;53.160;6.612;2022-08-20T14:00:59;25.40;96.50
33460;DHT22;19795;53.160;6.612;2022-08-20T14:03:25;26.20;97.70
33460;DHT22;19795;53.160;6.612;2022-08-20T14:05:50;25.90;96.20
33460;DHT22;19795;53.160;6.612;2022-08-20T14:08:21;25.50;96.40
33460;DHT22;19795;53.160;6.612;2022-08-20T14:10:48;25.20;96.90
33460;DHT22;19795;53.160;6.612;2022-08-20T14:13:15;25.30;97.30
33460;DHT22;19795;53.160;6.612;2022-08-20T14:15:41;25.40;98.10
33460;DHT22;19795;53.160;6.612;2022-08-20T14:18:07;25.20;96.90
33460;DHT22;19795;53.160;6.612;2022-08-20T14:20:33;25.50;97.70
33460;DHT22;19795;53.160;6.612;2022-08-20T14:23:00;26.60;96.90
33460;DHT22;19795;53.160;6.612;2022-08-20T14:25:26;27.00;94.40
33460;DHT22;19795;53.160;6.612;2022-08-20T14:27:53;25.60;95.90
33460;DHT22;19795;53.160;6.612;2022-08-20T14:30:25;25.00;94.40
33460;DHT22;19795;53.160;6.612;2022-08-20T14:32:52;24.40;94.70
33460;DHT22;19795;53.160;6.612;2022-08-20T14:35:18;23.90;95.50
33460;DHT22;19795;53.160;6.612;2022-08-20T14:37:50;23.70;97.00
33460;DHT22;19795;53.160;6.612;2022-08-20T14:40:19;23.70;98.50
33460;DHT22;19795;53.160;6.612;2022-08-20T14:42:45;23.60;97.40
33460;DHT22;19795;53.160;6.612;2022-08-20T14:45:12;23.30;98.20
33460;DHT22;19795;53.160;6.612;2022-08-20T14:47:47;23.60;99.90
33460;DHT22;19795;53.160;6.612;2022-08-20T14:50:19;23.80;97.50
33460;DHT22;19795;53.160;6.612;2022-08-20T14:52:46;24.00;98.70
33460;DHT22;19795;53.160;6.612;2022-08-20T14:55:17;24.50;97.60
33460;DHT22;19795;53.160;6.612;2022-08-20T14:57:44;24.50;95.90
33460;DHT22;19795;53.160;6.612;2022-08-20T15:00:14;24.10;97.30
33460;DHT22;19795;53.160;6.612;2022-08-20T15:02:42;23.70;96.70
33460;DHT22;19795;53.160;6.612;2022-08-20T15:05:09;23.40;96.70
33460;DHT22;19795;53.160;6.612;2022-08-20T15:07:40;23.40;97.30
33460;DHT22;19795;53.160;6.612;2022-08-20T15:10:10;23.50;98.30
33460;DHT22;19795;53.160;6.612;2022-08-20T15:12:36;23.50;99.20
33460;DHT22;19795;53.160;6.612;2022-08-20T15:15:03;23.30;98.00
33460;DHT22;19795;53.160;6.612;2022-08-20T15:17:31;23.50;97.80
33460;DHT22;19795;53.160;6.612;2022-08-20T15:19:59;23.40;99.10
33460;DHT22;19795;53.160;6.612;2022-08-20T15:22:26;23.40;98.10
33460;DHT22;19795;53.160;6.612;2022-08-20T15:24:51;23.20;98.00
33460;DHT22;19795;53.160;6.612;2022-08-20T15:27:20;23.30;98.20
33460;DHT22;19795;53.160;6.612;2022-08-20T15:29:46;23.60;97.40
33460;DHT22;19795;53.160;6.612;2022-08-20T15:32:12;23.70;98.10
33460;DHT22;19795;53.160;6.612;2022-08-20T15:34:39;23.70;99.00
33460;DHT22;19795;53.160;6.612;2022-08-20T15:37:11;23.60;97.90
33460;DHT22;19795;53.160;6.612;2022-08-20T15:39:38;23.70;98.40
33460;DHT22;19795;53.160;6.612;2022-08-20T15:42:05;23.80;97.00
33460;DHT22;19795;53.160;6.612;2022-08-20T15:44:31;23.60;97.50
33460;DHT22;19795;53.160;6.612;2022-08-20T15:49:39;23.40;97.20
33460;DHT22;19795;53.160;6.612;2022-08-20T15:52:05;23.50;97.40
33460;DHT22;19795;53.160;6.612;2022-08-20T15:54:31;23.40;97.30
33460;DHT22;19795;53.160;6.612;2022-08-20T15:57:02;23.30;99.60
33460;DHT22;19795;53.160;6.612;2022-08-20T16:05:17;23.20;99.90
33460;DHT22;19795;53.160;6.612;2022-08-20T16:13:46;23.30;99.90
33460;DHT22;19795;53.160;6.612;2022-08-20T16:16:30;23.00;98.80
33460;DHT22;19795;53.160;6.612;2022-08-20T16:18:57;23.00;99.90
33460;DHT22;19795;53.160;6.612;2022-08-20T16:21:35;23.00;99.90
33460;DHT22;19795;53.160;6.612;2022-08-20T16:24:02;23.10;99.90
33460;DHT22;19795;53.160;6.612;2022-08-20T16:29:19;23.50;99.90
33460;DHT22;19795;53.160;6.612;2022-08-20T16:34:36;23.10;98.50
33460;DHT22;19795;53.160;6.612;2022-08-20T16:42:49;22.80;99.90
33460;DHT22;19795;53.160;6.612;2022-08-20T16:47:53;23.70;98.20
33460;DHT22;19795;53.160;6.612;2022-08-20T16:50:22;23.70;97.90
33460;DHT22;19795;53.160;6.612;2022-08-20T16:52:49;23.70;97.30
33460;DHT22;19795;53.160;6.612;2022-08-20T16:55:17;23.80;98.50
33460;DHT22;19795;53.160;6.612;2022-08-20T16:57:44;24.10;98.50
33460;DHT22;19795;53.160;6.612;2022-08-20T17:00:27;24.70;98.00
33460;DHT22;19795;53.160;6.612;2022-08-20T17:03:02;25.00;97.60
33460;DHT22;19795;53.160;6.612;2022-08-20T17:05:51;24.40;97.60
33460;DHT22;19795;53.160;6.612;2022-08-20T17:08:30;23.80;98.50
33460;DHT22;19795;53.160;6.612;2022-08-20T17:13:29;22.70;99.90
33460;DHT22;19795;53.160;6.612;2022-08-20T17:16:02;22.30;99.90
33460;DHT22;19795;53.160;6.612;2022-08-20T17:18:31;22.00;99.90
33460;DHT22;19795;53.160;6.612;2022-08-20T17:21:26;22.00;99.90
33460;DHT22;19795;53.160;6.612;2022-08-20T17:26:32;22.60;99.90
33460;DHT22;19795;53.160;6.612;2022-08-20T17:29:04;22.70;99.90
33460;DHT22;19795;53.160;6.612;2022-08-20T17:31:42;22.80;99.90
33460;DHT22;19795;53.160;6.612;2022-08-20T17:34:19;22.60;99.90
33460;DHT22;19795;53.160;6.612;2022-08-20T17:39:18;21.60;99.90
33460;DHT22;19795;53.160;6.612;2022-08-20T17:41:47;21.40;99.90
33460;DHT22;19795;53.160;6.612;2022-08-20T17:47:27;20.80;99.90
33460;DHT22;19795;53.160;6.612;2022-08-20T17:50:00;20.50;99.90
33460;DHT22;19795;53.160;6.612;2022-08-20T17:52:35;20.10;99.90
33460;DHT22;19795;53.160;6.612;2022-08-20T17:55:04;20.40;99.90
33460;DHT22;19795;53.160;6.612;2022-08-20T17:57:35;20.40;99.90
33460;DHT22;19795;53.160;6.612;2022-08-20T18:00:08;20.40;99.90
33460;DHT22;19795;53.160;6.612;2022-08-20T18:02:34;20.30;99.90
33460;DHT22;19795;53.160;6.612;2022-08-20T18:05:09;20.30;99.90
33460;DHT22;19795;53.160;6.612;2022-08-20T18:07:41;20.30;99.90
33460;DHT22;19795;53.160;6.612;2022-08-20T18:10:13;20.20;99.90
33460;DHT22;19795;53.160;6.612;2022-08-20T18:15:23;20.10;99.90
33460;DHT22;19795;53.160;6.612;2022-08-20T18:18:29;20.00;99.90
33460;DHT22;19795;53.160;6.612;2022-08-20T18:21:52;19.90;99.90
33460;DHT22;19795;53.160;6.612;2022-08-20T18:24:29;19.80;99.90
33460;DHT22;19795;53.160;6.612;2022-08-20T18:27:01;19.70;99.90
33460;DHT22;19795;53.160;6.612;2022-08-20T18:29:33;19.50;99.90
33460;DHT22;19795;53.160;6.612;2022-08-20T18:32:03;19.30;99.90
33460;DHT22;19795;53.160;6.612;2022-08-20T18:34:39;19.00;99.90
33460;DHT22;19795;53.160;6.612;2022-08-20T18:39:40;18.60;99.90
33460;DHT22;19795;53.160;6.612;2022-08-20T18:42:32;18.50;99.90
33460;DHT22;19795;53.160;6.612;2022-08-20T18:44:59;18.50;99.90
33460;DHT22;19795;53.160;6.612;2022-08-20T18:52:38;18.20;99.90
33460;DHT22;19795;53.160;6.612;2022-08-20T18:55:32;18.20;99.90
33460;DHT22;19795;53.160;6.612;2022-08-20T18:58:07;18.00;99.90
33460;DHT22;19795;53.160;6.612;2022-08-20T19:00:45;18.00;99.90
33460;DHT22;19795;53.160;6.612;2022-08-20T19:03:30;18.00;99.90
33460;DHT22;19795;53.160;6.612;2022-08-20T19:08:59;17.90;99.90
33460;DHT22;19795;53.160;6.612;2022-08-20T19:20:15;17.20;99.90
33460;DHT22;19795;53.160;6.612;2022-08-20T19:22:43;17.10;99.90
33460;DHT22;19795;53.160;6.612;2022-08-20T19:25:20;17.00;99.90
33460;DHT22;19795;53.160;6.612;2022-08-20T19:27:47;16.90;99.90
33460;DHT22;19795;53.160;6.612;2022-08-20T19:30:13;16.90;99.90
33460;DHT22;19795;53.160;6.612;2022-08-20T19:32:38;16.80;99.90
